Time;durP1;ratioP1;P1;durP2;ratioP2;P2;SDS_P1;SDS_P2;PMS_P1;PMS_P2;Temp;Humidity;BMP_temperature;BMP_pressure;BME280_temperature;BME280_humidity;BME280_pressure;Samples;Min_cycle;Max_cycle;Signal;HPM_P1;HPM_P2
2022/12/12 00:00:18;;;;;;;64.18;31.30;;;;;;;;;;4984431;28;20039;-83
2022/12/12 00:02:45;;;;;;;62.97;31.63;;;;;;;;;;4988622;28;20823;-82
2022/12/12 00:05:13;;;;;;;60.15;30.52;;;;;;;;;;5001533;28;20030;-81
2022/12/12 00:07:39;;;;;;;56.30;30.90;;;;;;;;;;4994627;28;20044;-82
2022/12/12 00:10:06;;;;;;;60.00;30.45;;;;;;;;;;4989431;28;20483;-83
2022/12/12 00:12:32;;;;;;;61.55;30.67;;;;;;;;;;4991069;28;20038;-83
2022/12/12 00:14:58;;;;;;;57.03;30.98;;;;;;;;;;4990386;28;20499;-83
2022/12/12 00:17:24;;;;;;;61.63;30.77;;;;;;;;;;5001596;28;20035;-82
2022/12/12 00:19:50;;;;;;;58.10;30.40;;;;;;;;;;4990207;28;20314;-82
2022/12/12 00:22:17;;;;;;;63.55;31.75;;;;;;;;;;4991983;28;20031;-82
2022/12/12 00:24:43;;;;;;;70.60;32.72;;;;;;;;;;4995837;28;20042;-82
2022/12/12 00:27:09;;;;;;;55.08;29.92;;;;;;;;;;4992132;28;20108;-83
2022/12/12 00:29:35;;;;;;;65.43;31.65;;;;;;;;;;4992946;28;20022;-81
2022/12/12 00:32:02;;;;;;;61.78;31.98;;;;;;;;;;4999638;28;20019;-81
2022/12/12 00:34:28;;;;;;;63.58;31.02;;;;;;;;;;5000090;28;20030;-80
2022/12/12 00:36:54;;;;;;;62.28;31.88;;;;;;;;;;5002020;28;20046;-81
2022/12/12 00:39:21;;;;;;;58.55;32.00;;;;;;;;;;4992262;28;20031;-81
2022/12/12 00:41:48;;;;;;;62.97;32.80;;;;;;;;;;4992726;28;20037;-83
2022/12/12 00:44:14;;;;;;;62.58;31.63;;;;;;;;;;4994852;28;20027;-80
2022/12/12 00:46:41;;;;;;;58.88;31.27;;;;;;;;;;5005267;28;20041;-80
2022/12/12 00:49:07;;;;;;;65.32;30.70;;;;;;;;;;5009148;28;20466;-83
2022/12/12 00:51:33;;;;;;;61.28;31.67;;;;;;;;;;4993737;28;20026;-82
2022/12/12 00:53:59;;;;;;;70.43;33.42;;;;;;;;;;4989098;28;20027;-85
2022/12/12 00:56:26;;;;;;;65.63;33.25;;;;;;;;;;4990627;28;20035;-83
2022/12/12 00:58:52;;;;;;;63.05;34.00;;;;;;;;;;4991735;28;20034;-83
2022/12/12 01:01:21;;;;;;;67.90;33.88;;;;;;;;;;4989145;28;20085;-83
2022/12/12 01:03:47;;;;;;;63.58;32.33;;;;;;;;;;4996620;28;20026;-82
2022/12/12 01:06:14;;;;;;;65.32;33.38;;;;;;;;;;4990029;28;20527;-83
2022/12/12 01:08:40;;;;;;;64.50;33.67;;;;;;;;;;4984172;28;20038;-83
2022/12/12 01:11:07;;;;;;;68.22;33.40;;;;;;;;;;4981640;28;20396;-83
2022/12/12 01:13:34;;;;;;;61.97;33.08;;;;;;;;;;4988132;28;20591;-83
2022/12/12 01:16:00;;;;;;;66.88;34.33;;;;;;;;;;4992924;28;20026;-84
2022/12/12 01:18:26;;;;;;;70.63;34.53;;;;;;;;;;4987323;28;20397;-83
2022/12/12 01:20:52;;;;;;;64.75;33.50;;;;;;;;;;4986896;28;20656;-83
2022/12/12 01:23:19;;;;;;;70.13;33.75;;;;;;;;;;4985773;28;20038;-83
2022/12/12 01:25:45;;;;;;;73.45;35.63;;;;;;;;;;4982288;28;20482;-83
2022/12/12 01:28:11;;;;;;;72.97;34.88;;;;;;;;;;4974707;28;20034;-82
2022/12/12 01:30:37;;;;;;;67.05;33.17;;;;;;;;;;4983974;28;20447;-83
2022/12/12 01:33:03;;;;;;;74.18;34.97;;;;;;;;;;4988162;28;20442;-84
2022/12/12 01:35:30;;;;;;;74.75;34.63;;;;;;;;;;4985108;28;20038;-83
2022/12/12 01:37:57;;;;;;;68.35;34.00;;;;;;;;;;5000312;28;20733;-82
2022/12/12 01:40:25;;;;;;;75.20;36.47;;;;;;;;;;4986781;28;20089;-82
2022/12/12 01:42:53;;;;;;;68.43;35.03;;;;;;;;;;4987000;28;20080;-83
2022/12/12 01:45:38;;;;;;;74.28;36.65;;;;;;;;;;4988121;28;20038;-84
2022/12/12 01:48:04;;;;;;;73.72;35.95;;;;;;;;;;4980977;28;20045;-84
2022/12/12 01:50:31;;;;;;;72.07;35.47;;;;;;;;;;4984972;28;20443;-83
2022/12/12 01:52:57;;;;;;;79.70;36.63;;;;;;;;;;4982917;28;20027;-83
2022/12/12 01:55:23;;;;;;;71.53;36.45;;;;;;;;;;4986432;28;20092;-83
2022/12/12 01:57:53;;;;;;;71.40;35.95;;;;;;;;;;4984463;28;20034;-82
2022/12/12 02:00:19;;;;;;;73.32;36.65;;;;;;;;;;4990972;28;20026;-83
2022/12/12 02:02:46;;;;;;;70.97;35.22;;;;;;;;;;5000391;28;20042;-82
2022/12/12 02:05:31;;;;;;;76.82;37.58;;;;;;;;;;4992806;28;20522;-82
2022/12/12 02:07:59;;;;;;;70.50;33.30;;;;;;;;;;5003095;28;20034;-84
2022/12/12 02:10:25;;;;;;;70.60;35.15;;;;;;;;;;4991156;28;20030;-84
2022/12/12 02:12:59;;;;;;;76.70;35.95;;;;;;;;;;4990896;28;20035;-84
2022/12/12 02:15:29;;;;;;;77.72;34.95;;;;;;;;;;4990060;28;20033;-84
2022/12/12 02:18:05;;;;;;;77.72;36.13;;;;;;;;;;4989781;28;20027;-83
2022/12/12 02:20:37;;;;;;;76.18;37.22;;;;;;;;;;4987654;28;20030;-83
2022/12/12 02:23:22;;;;;;;74.97;35.28;;;;;;;;;;4990284;28;20033;-84
2022/12/12 02:26:07;;;;;;;77.55;36.10;;;;;;;;;;4984806;28;20034;-83
2022/12/12 02:28:55;;;;;;;86.97;40.30;;;;;;;;;;4970530;28;20037;-82
2022/12/12 02:31:32;;;;;;;89.80;40.72;;;;;;;;;;4989354;28;20546;-82
2022/12/12 02:34:11;;;;;;;80.22;37.92;;;;;;;;;;4990673;28;20463;-82
2022/12/12 02:36:40;;;;;;;79.93;37.15;;;;;;;;;;4987643;28;20593;-82
2022/12/12 02:39:09;;;;;;;81.80;38.08;;;;;;;;;;5004117;28;20026;-83
2022/12/12 02:41:41;;;;;;;78.88;38.67;;;;;;;;;;4989209;28;20042;-83
2022/12/12 02:44:18;;;;;;;83.32;38.60;;;;;;;;;;4989119;28;20076;-83
2022/12/12 02:46:54;;;;;;;78.43;38.13;;;;;;;;;;4982824;28;20046;-83
2022/12/12 02:49:28;;;;;;;79.13;37.03;;;;;;;;;;4987643;28;20049;-83
2022/12/12 02:51:55;;;;;;;76.03;36.95;;;;;;;;;;4976556;28;20357;-82
2022/12/12 02:54:22;;;;;;;83.85;38.88;;;;;;;;;;5000468;28;20391;-83
2022/12/12 02:56:56;;;;;;;78.38;38.42;;;;;;;;;;4986923;28;20082;-83
2022/12/12 02:59:28;;;;;;;82.55;37.38;;;;;;;;;;4989299;28;20026;-82
2022/12/12 03:02:08;;;;;;;82.15;38.67;;;;;;;;;;4986384;28;20446;-83
2022/12/12 03:07:46;;;;;;;87.93;38.95;;;;;;;;;;4980832;28;20049;-80
2022/12/12 03:10:25;;;;;;;89.85;39.40;;;;;;;;;;4981877;28;20058;-82
2022/12/12 03:12:59;;;;;;;89.72;39.30;;;;;;;;;;4986918;28;20045;-82
2022/12/12 03:15:40;;;;;;;89.68;37.53;;;;;;;;;;4980371;28;20026;-83
2022/12/12 03:18:06;;;;;;;;;;;;;;;;;;4971501;28;20112;-81
2022/12/12 03:20:47;;;;;;;77.65;35.72;;;;;;;;;;4982661;28;19973;-82
2022/12/12 03:23:13;;;;;;;;;;;;;;;;;;4970949;28;20030;-81
2022/12/12 03:25:52;;;;;;;89.93;37.90;;;;;;;;;;4989476;28;19914;-83
2022/12/12 03:28:24;;;;;;;89.40;38.05;;;;;;;;;;4989624;28;20026;-82
2022/12/12 03:30:54;;;;;;;91.05;40.70;;;;;;;;;;5006356;28;20626;-83
2022/12/12 03:33:20;;;;;;;86.82;38.85;;;;;;;;;;4993981;28;20372;-83
2022/12/12 03:35:56;;;;;;;89.15;39.38;;;;;;;;;;4992428;28;20446;-83
2022/12/12 03:38:24;;;;;;;93.38;39.88;;;;;;;;;;4968275;28;20404;-82
2022/12/12 03:40:55;;;;;;;86.43;38.88;;;;;;;;;;5007637;28;20448;-80
2022/12/12 03:43:22;;;;;;;83.85;39.53;;;;;;;;;;5008110;28;20431;-83
2022/12/12 03:46:05;;;;;;;88.45;39.97;;;;;;;;;;4992692;28;20038;-83
2022/12/12 03:48:37;;;;;;;92.20;40.55;;;;;;;;;;4981683;28;20129;-83
2022/12/12 03:51:06;;;;;;;85.97;38.55;;;;;;;;;;4982918;28;20365;-82
2022/12/12 03:53:38;;;;;;;92.65;40.95;;;;;;;;;;4982319;28;20030;-83
2022/12/12 03:56:12;;;;;;;86.20;38.42;;;;;;;;;;4989949;28;20030;-83
2022/12/12 03:58:43;;;;;;;93.85;40.00;;;;;;;;;;4992356;28;20438;-82
2022/12/12 04:01:10;;;;;;;96.80;40.67;;;;;;;;;;4991954;28;20474;-81
2022/12/12 04:03:48;;;;;;;90.38;40.65;;;;;;;;;;4988164;28;20038;-83
2022/12/12 04:06:27;;;;;;;88.13;38.45;;;;;;;;;;4990197;28;20027;-82
2022/12/12 04:14:27;;;;;;;97.32;41.75;;;;;;;;;;4993178;28;20403;-83
2022/12/12 04:16:59;;;;;;;110.88;41.65;;;;;;;;;;4990670;28;21041;-81
2022/12/12 04:25:29;;;;;;;122.25;51.50;;;;;;;;;;4992335;28;20030;-81
2022/12/12 04:27:57;;;;;;;130.45;53.08;;;;;;;;;;4989457;28;20037;-82
2022/12/12 04:30:24;;;;;;;120.07;50.45;;;;;;;;;;5003682;28;20022;-81
2022/12/12 04:32:56;;;;;;;113.85;46.03;;;;;;;;;;5007426;28;20027;-81
2022/12/12 04:35:26;;;;;;;116.90;45.45;;;;;;;;;;4982622;28;20558;-81
2022/12/12 04:38:02;;;;;;;116.25;44.47;;;;;;;;;;4974016;28;20058;-80
2022/12/12 04:40:30;;;;;;;134.00;45.30;;;;;;;;;;4990631;28;20554;-81
2022/12/12 04:42:58;;;;;;;118.82;43.30;;;;;;;;;;4990559;28;20062;-81
2022/12/12 04:45:27;;;;;;;122.90;45.10;;;;;;;;;;4979413;28;20427;-81
2022/12/12 04:47:55;;;;;;;125.70;44.47;;;;;;;;;;4989649;28;20487;-81
2022/12/12 04:50:22;;;;;;;132.00;44.80;;;;;;;;;;4990782;28;20046;-81
2022/12/12 04:52:50;;;;;;;124.32;46.55;;;;;;;;;;4990411;28;20034;-83
2022/12/12 04:55:36;;;;;;;144.75;50.83;;;;;;;;;;4991266;28;20034;-82
2022/12/12 04:58:03;;;;;;;149.57;53.00;;;;;;;;;;4993529;28;20026;-81
2022/12/12 05:00:32;;;;;;;146.93;52.03;;;;;;;;;;4964776;28;20487;-80
2022/12/12 05:03:04;;;;;;;156.95;50.05;;;;;;;;;;4985588;28;20019;-81
2022/12/12 05:05:37;;;;;;;156.05;52.33;;;;;;;;;;4984150;28;20030;-80
2022/12/12 05:08:08;;;;;;;168.23;53.67;;;;;;;;;;4990910;28;20026;-82
2022/12/12 05:10:34;;;;;;;;;;;;;;;;;;4991456;28;20080;-80
2022/12/12 05:13:04;;;;;;;154.65;49.72;;;;;;;;;;4989797;28;19914;-82
2022/12/12 05:15:30;;;;;;;159.57;49.08;;;;;;;;;;4992219;28;20030;-81
2022/12/12 05:17:56;;;;;;;142.05;50.80;;;;;;;;;;4991264;28;20042;-81
2022/12/12 05:20:22;;;;;;;144.55;50.05;;;;;;;;;;4988257;28;20629;-81
2022/12/12 05:22:48;;;;;;;156.15;50.45;;;;;;;;;;4990142;28;20045;-80
2022/12/12 05:25:14;;;;;;;145.98;47.58;;;;;;;;;;4989767;28;20404;-81
2022/12/12 05:27:40;;;;;;;142.70;49.13;;;;;;;;;;4982045;28;20493;-80
2022/12/12 05:30:26;;;;;;;149.48;48.95;;;;;;;;;;4988443;28;20037;-82
2022/12/12 05:32:52;;;;;;;146.13;48.03;;;;;;;;;;4974487;28;20066;-79
2022/12/12 05:35:18;;;;;;;142.32;50.03;;;;;;;;;;4975501;28;20129;-81
2022/12/12 05:37:44;;;;;;;152.13;50.00;;;;;;;;;;4979049;28;20381;-81
2022/12/12 05:40:11;;;;;;;153.38;50.42;;;;;;;;;;4986065;28;20030;-81
2022/12/12 05:42:38;;;;;;;157.82;50.33;;;;;;;;;;4988789;28;20034;-81
2022/12/12 05:45:05;;;;;;;148.82;48.70;;;;;;;;;;4987315;28;20026;-81
2022/12/12 05:47:31;;;;;;;152.60;48.47;;;;;;;;;;4983942;28;20030;-81
2022/12/12 05:49:57;;;;;;;175.80;53.97;;;;;;;;;;4986124;28;20038;-80
2022/12/12 05:52:23;;;;;;;164.40;55.53;;;;;;;;;;4982073;28;20035;-81
2022/12/12 05:54:50;;;;;;;207.10;66.53;;;;;;;;;;4983172;28;20022;-81
2022/12/12 05:57:17;;;;;;;184.23;62.25;;;;;;;;;;4985474;28;20076;-81
2022/12/12 05:59:44;;;;;;;193.02;56.05;;;;;;;;;;4966807;28;20099;-81
2022/12/12 06:02:10;;;;;;;157.20;52.95;;;;;;;;;;4988315;28;20034;-81
2022/12/12 06:04:36;;;;;;;169.63;53.50;;;;;;;;;;4990070;28;20114;-81
2022/12/12 06:07:03;;;;;;;174.65;57.75;;;;;;;;;;4986998;28;20034;-81
2022/12/12 06:09:29;;;;;;;183.82;61.97;;;;;;;;;;4975272;28;20026;-80
2022/12/12 06:11:55;;;;;;;195.10;61.75;;;;;;;;;;4987041;28;20023;-80
2022/12/12 06:14:21;;;;;;;187.18;59.38;;;;;;;;;;5007520;28;20377;-80
2022/12/12 06:16:47;;;;;;;194.90;59.88;;;;;;;;;;5010542;28;20038;-80
2022/12/12 06:22:46;;;;;;;173.52;56.70;;;;;;;;;;4993930;28;20053;-80
2022/12/12 06:25:12;;;;;;;170.40;57.40;;;;;;;;;;4988612;28;20034;-81
2022/12/12 06:27:39;;;;;;;200.38;59.33;;;;;;;;;;4989072;28;20052;-80
2022/12/12 06:30:05;;;;;;;196.70;58.78;;;;;;;;;;5001739;28;20380;-80
2022/12/12 06:32:32;;;;;;;191.20;55.30;;;;;;;;;;4994533;28;20089;-80
2022/12/12 06:34:58;;;;;;;179.35;54.15;;;;;;;;;;4986648;28;20042;-80
2022/12/12 06:37:24;;;;;;;171.60;54.08;;;;;;;;;;4997072;28;20034;-80
2022/12/12 06:39:50;;;;;;;179.02;54.72;;;;;;;;;;5003975;28;20072;-81
2022/12/12 06:42:16;;;;;;;168.50;52.55;;;;;;;;;;4990265;28;20190;-78
2022/12/12 06:44:42;;;;;;;172.05;55.38;;;;;;;;;;5000855;28;20085;-80
2022/12/12 06:47:09;;;;;;;183.68;57.45;;;;;;;;;;5000371;28;20101;-82
2022/12/12 06:49:35;;;;;;;185.05;55.72;;;;;;;;;;5004824;28;20042;-79
2022/12/12 06:52:01;;;;;;;169.73;52.72;;;;;;;;;;4992518;28;20025;-80
2022/12/12 06:54:27;;;;;;;182.38;54.85;;;;;;;;;;4987930;28;20035;-81
2022/12/12 06:56:53;;;;;;;173.13;52.88;;;;;;;;;;5007142;28;20024;-81
2022/12/12 06:59:19;;;;;;;179.88;53.30;;;;;;;;;;4993716;28;20490;-80
2022/12/12 07:01:46;;;;;;;192.45;56.33;;;;;;;;;;4992655;28;20030;-80
2022/12/12 07:04:12;;;;;;;183.30;54.22;;;;;;;;;;4991038;28;20373;-79
2022/12/12 07:06:39;;;;;;;173.98;54.65;;;;;;;;;;5009473;28;20224;-80
2022/12/12 07:09:06;;;;;;;173.75;53.05;;;;;;;;;;4998074;28;20047;-81
2022/12/12 07:11:32;;;;;;;178.40;53.15;;;;;;;;;;5010034;28;20051;-80
2022/12/12 07:14:00;;;;;;;189.27;54.63;;;;;;;;;;4991285;28;20026;-79
2022/12/12 07:16:26;;;;;;;182.23;53.40;;;;;;;;;;4994801;28;20034;-79
2022/12/12 07:18:52;;;;;;;184.00;56.38;;;;;;;;;;4993104;28;20463;-80
2022/12/12 07:21:19;;;;;;;159.20;52.40;;;;;;;;;;4993798;28;20129;-80
2022/12/12 07:23:45;;;;;;;180.68;53.90;;;;;;;;;;4996543;28;20143;-80
2022/12/12 07:26:16;;;;;;;178.85;54.08;;;;;;;;;;4991901;28;20049;-81
2022/12/12 07:28:42;;;;;;;168.70;51.35;;;;;;;;;;5011621;28;20038;-82
2022/12/12 07:31:09;;;;;;;159.52;51.80;;;;;;;;;;4991844;28;20492;-80
2022/12/12 07:33:36;;;;;;;162.02;50.97;;;;;;;;;;4995721;28;20169;-79
2022/12/12 07:36:02;;;;;;;175.80;58.22;;;;;;;;;;4995485;28;20026;-83
2022/12/12 07:38:29;;;;;;;170.80;52.78;;;;;;;;;;5010181;28;20492;-81
2022/12/12 07:40:55;;;;;;;177.27;54.13;;;;;;;;;;4995170;28;20565;-80
2022/12/12 07:43:22;;;;;;;178.52;51.40;;;;;;;;;;4996820;28;20070;-80
2022/12/12 07:45:48;;;;;;;168.30;53.95;;;;;;;;;;4995925;28;20034;-81
2022/12/12 07:48:14;;;;;;;201.88;63.25;;;;;;;;;;4995216;28;20113;-80
2022/12/12 07:50:41;;;;;;;217.20;69.90;;;;;;;;;;4991073;28;20034;-80
2022/12/12 07:53:07;;;;;;;203.30;62.38;;;;;;;;;;4989523;28;20024;-80
2022/12/12 07:55:34;;;;;;;184.10;59.28;;;;;;;;;;4995994;28;20034;-81
2022/12/12 07:58:00;;;;;;;204.88;61.17;;;;;;;;;;4996457;28;20042;-81
2022/12/12 08:00:27;;;;;;;199.13;61.42;;;;;;;;;;4993568;28;20034;-81
2022/12/12 08:02:54;;;;;;;198.77;58.10;;;;;;;;;;4994302;28;20034;-81
2022/12/12 08:05:20;;;;;;;190.32;61.95;;;;;;;;;;4996122;28;20035;-79
2022/12/12 08:07:47;;;;;;;205.10;62.65;;;;;;;;;;4994690;28;20061;-80
2022/12/12 08:10:13;;;;;;;196.20;60.03;;;;;;;;;;4991593;28;20164;-81
2022/12/12 08:12:40;;;;;;;204.65;63.15;;;;;;;;;;4991387;28;20399;-80
2022/12/12 08:15:06;;;;;;;201.73;62.40;;;;;;;;;;4991355;28;20046;-80
2022/12/12 08:17:32;;;;;;;188.95;59.05;;;;;;;;;;4993255;28;20435;-81
2022/12/12 08:19:58;;;;;;;190.20;61.53;;;;;;;;;;4991787;28;20050;-80
2022/12/12 08:22:24;;;;;;;204.82;63.53;;;;;;;;;;4990014;28;20042;-81
2022/12/12 08:24:50;;;;;;;197.98;61.50;;;;;;;;;;4987187;28;20400;-79
2022/12/12 08:27:17;;;;;;;191.32;59.50;;;;;;;;;;4986644;28;20070;-79
2022/12/12 08:29:43;;;;;;;201.68;61.58;;;;;;;;;;4981844;28;20109;-81
2022/12/12 08:32:09;;;;;;;192.23;61.67;;;;;;;;;;4992112;28;20034;-79
2022/12/12 08:34:35;;;;;;;200.55;62.45;;;;;;;;;;4991545;28;20049;-80
2022/12/12 08:37:02;;;;;;;200.20;63.83;;;;;;;;;;4991315;28;20030;-82
2022/12/12 08:39:28;;;;;;;208.32;67.43;;;;;;;;;;4982099;28;20442;-80
2022/12/12 08:41:55;;;;;;;219.32;68.30;;;;;;;;;;5007331;28;20145;-80
2022/12/12 08:44:21;;;;;;;218.48;67.80;;;;;;;;;;5006340;28;20968;-81
2022/12/12 08:46:47;;;;;;;203.77;67.07;;;;;;;;;;4985935;28;20037;-79
2022/12/12 08:49:14;;;;;;;209.70;67.20;;;;;;;;;;4991655;28;20074;-80
2022/12/12 08:51:40;;;;;;;210.90;67.28;;;;;;;;;;4991469;28;20038;-80
2022/12/12 08:54:07;;;;;;;196.70;61.03;;;;;;;;;;4992218;28;20030;-82
2022/12/12 08:56:33;;;;;;;207.10;66.65;;;;;;;;;;4989014;28;20634;-81
2022/12/12 08:58:59;;;;;;;203.30;67.65;;;;;;;;;;4992336;28;20372;-81
2022/12/12 09:01:26;;;;;;;201.35;67.10;;;;;;;;;;4989391;28;20034;-80
2022/12/12 09:03:54;;;;;;;198.95;67.97;;;;;;;;;;4991191;28;20030;-80
2022/12/12 09:06:21;;;;;;;207.82;67.72;;;;;;;;;;4994149;28;20030;-81
2022/12/12 09:08:47;;;;;;;182.43;64.30;;;;;;;;;;4990042;28;20125;-80
2022/12/12 09:11:13;;;;;;;191.13;61.90;;;;;;;;;;4989527;28;20027;-81
2022/12/12 09:13:40;;;;;;;199.55;66.90;;;;;;;;;;4989641;28;20036;-81
2022/12/12 09:16:07;;;;;;;183.10;62.65;;;;;;;;;;4990518;28;20026;-81
2022/12/12 09:18:33;;;;;;;167.10;60.90;;;;;;;;;;4991766;28;20046;-80
2022/12/12 09:20:59;;;;;;;183.50;62.90;;;;;;;;;;4990387;28;20484;-80
2022/12/12 09:23:26;;;;;;;164.18;61.13;;;;;;;;;;4988087;28;20500;-80
2022/12/12 09:25:53;;;;;;;196.40;72.65;;;;;;;;;;4990865;28;20385;-80
2022/12/12 09:28:20;;;;;;;172.38;64.55;;;;;;;;;;4990444;28;20101;-81
2022/12/12 09:30:46;;;;;;;168.18;64.65;;;;;;;;;;4975728;28;20034;-80
2022/12/12 09:33:13;;;;;;;218.07;95.85;;;;;;;;;;5000416;28;20050;-80
2022/12/12 09:35:39;;;;;;;181.82;72.97;;;;;;;;;;4989468;28;20101;-80
2022/12/12 09:38:06;;;;;;;194.60;70.07;;;;;;;;;;4992168;28;20450;-81
2022/12/12 09:40:33;;;;;;;171.23;61.10;;;;;;;;;;4989791;28;20133;-80
2022/12/12 09:42:59;;;;;;;192.55;80.10;;;;;;;;;;4990413;28;20088;-79
2022/12/12 09:45:26;;;;;;;175.95;67.28;;;;;;;;;;4991382;28;20073;-80
2022/12/12 09:47:57;;;;;;;159.43;61.45;;;;;;;;;;4988310;28;20026;-80
2022/12/12 09:50:35;;;;;;;145.25;56.33;;;;;;;;;;4990266;28;20046;-81
2022/12/12 09:53:12;;;;;;;154.38;59.42;;;;;;;;;;4991373;28;20037;-82
2022/12/12 09:55:41;;;;;;;158.55;58.10;;;;;;;;;;4991122;28;20534;-81
2022/12/12 09:58:28;;;;;;;148.48;54.80;;;;;;;;;;4989520;28;20045;-81
2022/12/12 10:01:11;;;;;;;139.30;54.97;;;;;;;;;;4956270;28;20038;-82
2022/12/12 10:03:37;;;;;;;133.07;54.50;;;;;;;;;;4981504;28;20101;-81
2022/12/12 10:06:08;;;;;;;146.88;56.08;;;;;;;;;;5004255;28;20514;-82
2022/12/12 10:08:40;;;;;;;136.18;53.08;;;;;;;;;;4990600;28;20031;-80
2022/12/12 10:11:48;;;;;;;120.85;50.40;;;;;;;;;;4982221;28;20037;-82
2022/12/12 10:13:58;;;;;;;129.00;52.08;;;;;;;;;;4990771;28;20558;-81
2022/12/12 10:16:25;;;;;;;125.97;51.67;;;;;;;;;;4981525;28;20034;-80
2022/12/12 10:18:52;;;;;;;131.15;50.67;;;;;;;;;;4990227;28;20038;-80
2022/12/12 10:21:25;;;;;;;123.07;51.53;;;;;;;;;;4988414;28;20037;-80
2022/12/12 10:24:09;;;;;;;124.28;50.85;;;;;;;;;;4990722;28;20105;-80
2022/12/12 10:26:35;;;;;;;114.95;50.80;;;;;;;;;;4988848;28;20022;-79
2022/12/12 10:29:28;;;;;;;127.75;51.40;;;;;;;;;;4994552;28;20462;-80
2022/12/12 10:31:57;;;;;;;105.63;46.95;;;;;;;;;;4986610;28;20395;-80
2022/12/12 10:34:36;;;;;;;119.10;50.10;;;;;;;;;;4988593;28;20435;-80
2022/12/12 10:37:08;;;;;;;106.85;45.38;;;;;;;;;;4987858;28;20030;-83
2022/12/12 10:39:43;;;;;;;103.97;45.40;;;;;;;;;;4988894;28;20093;-80
2022/12/12 10:42:28;;;;;;;108.35;45.58;;;;;;;;;;4986856;28;20042;-81
2022/12/12 10:45:13;;;;;;;96.95;41.75;;;;;;;;;;4988749;28;20034;-80
2022/12/12 10:47:39;;;;;;;88.43;39.92;;;;;;;;;;4987178;28;20030;-81
2022/12/12 10:50:24;;;;;;;85.80;39.42;;;;;;;;;;4987229;28;20038;-81
2022/12/12 10:52:50;;;;;;;85.82;38.65;;;;;;;;;;4987977;28;20070;-78
2022/12/12 10:55:38;;;;;;;82.93;38.08;;;;;;;;;;5005412;28;20038;-82
2022/12/12 10:58:06;;;;;;;78.40;35.70;;;;;;;;;;4987466;28;20057;-81
2022/12/12 11:00:37;;;;;;;70.25;34.38;;;;;;;;;;4985062;28;20080;-81
2022/12/12 11:03:23;;;;;;;69.95;34.92;;;;;;;;;;4989453;28;20057;-82
2022/12/12 11:05:50;;;;;;;70.70;34.00;;;;;;;;;;4990880;28;20046;-80
2022/12/12 11:08:20;;;;;;;70.55;33.60;;;;;;;;;;4989471;28;20027;-82
2022/12/12 11:10:57;;;;;;;65.18;31.83;;;;;;;;;;4986201;28;20034;-82
2022/12/12 11:13:24;;;;;;;65.78;31.17;;;;;;;;;;4986724;28;20491;-80
2022/12/12 11:15:51;;;;;;;63.33;30.58;;;;;;;;;;4988951;28;20065;-79
2022/12/12 11:18:19;;;;;;;67.57;32.05;;;;;;;;;;4965654;28;20030;-81
2022/12/12 11:20:50;;;;;;;60.90;30.73;;;;;;;;;;4984587;28;20026;-82
2022/12/12 11:23:16;;;;;;;;;;;;;;;;;;4987825;28;20112;-80
2022/12/12 11:25:42;;;;;;;60.63;27.88;;;;;;;;;;4989699;28;19913;-82
2022/12/12 11:28:15;;;;;;;54.85;27.77;;;;;;;;;;4989255;28;20028;-82
2022/12/12 11:30:43;;;;;;;61.03;28.85;;;;;;;;;;4990246;28;20030;-80
2022/12/12 11:33:15;;;;;;;61.10;29.98;;;;;;;;;;4986629;28;20289;-82
2022/12/12 11:35:42;;;;;;;56.22;27.95;;;;;;;;;;4988924;28;20031;-81
2022/12/12 11:38:19;;;;;;;58.53;28.02;;;;;;;;;;4985842;28;20041;-82
2022/12/12 11:40:46;;;;;;;54.88;26.77;;;;;;;;;;4983283;28;20117;-80
2022/12/12 11:43:31;;;;;;;56.80;26.83;;;;;;;;;;4969970;28;20035;-81
2022/12/12 11:46:15;;;;;;;53.67;26.77;;;;;;;;;;5001635;28;20042;-80
2022/12/12 11:48:43;;;;;;;51.55;26.80;;;;;;;;;;4992417;28;20610;-81
2022/12/12 11:51:10;;;;;;;58.55;28.25;;;;;;;;;;4991417;28;20030;-81
2022/12/12 11:53:38;;;;;;;64.57;29.90;;;;;;;;;;5007511;28;20161;-81
2022/12/12 11:56:31;;;;;;;58.47;27.90;;;;;;;;;;4991751;28;20114;-80
2022/12/12 11:59:06;;;;;;;56.40;27.70;;;;;;;;;;4993414;28;20034;-81
2022/12/12 12:01:51;;;;;;;58.67;28.00;;;;;;;;;;4996403;28;20077;-81
2022/12/12 12:04:46;;;;;;;50.33;26.33;;;;;;;;;;4975234;28;20035;-81
2022/12/12 12:07:17;;;;;;;58.38;28.13;;;;;;;;;;4983180;28;20065;-81
2022/12/12 12:09:48;;;;;;;54.70;27.50;;;;;;;;;;4986592;28;20034;-81
2022/12/12 12:12:24;;;;;;;53.35;26.05;;;;;;;;;;4975783;28;20046;-80
2022/12/12 12:15:07;;;;;;;52.15;27.30;;;;;;;;;;4991862;28;20026;-81
2022/12/12 12:17:56;;;;;;;52.47;25.13;;;;;;;;;;4991660;28;20485;-81
2022/12/12 12:20:52;;;;;;;46.88;23.02;;;;;;;;;;4990364;28;20076;-81
2022/12/12 12:23:24;;;;;;;45.75;22.40;;;;;;;;;;4974277;28;20268;-81
2022/12/12 12:26:00;;;;;;;43.92;23.40;;;;;;;;;;4990192;28;20472;-81
2022/12/12 12:28:53;;;;;;;41.03;21.35;;;;;;;;;;4991806;28;20037;-81
2022/12/12 12:31:39;;;;;;;35.83;20.88;;;;;;;;;;4990293;28;20033;-81
2022/12/12 12:34:16;;;;;;;41.58;21.92;;;;;;;;;;4973929;28;20114;-83
2022/12/12 12:36:42;;;;;;;44.00;21.15;;;;;;;;;;4990612;28;20168;-82
2022/12/12 12:39:27;;;;;;;38.95;20.38;;;;;;;;;;4992205;28;20038;-81
2022/12/12 12:41:53;;;;;;;47.60;22.10;;;;;;;;;;4993902;28;20073;-81
2022/12/12 12:44:38;;;;;;;48.72;22.55;;;;;;;;;;4992681;28;20035;-80
2022/12/12 12:47:16;;;;;;;40.00;21.27;;;;;;;;;;4989771;28;20093;-78
2022/12/12 12:49:49;;;;;;;40.05;22.55;;;;;;;;;;4989045;28;20058;-79
2022/12/12 12:52:22;;;;;;;40.88;22.40;;;;;;;;;;4969177;28;20079;-81
2022/12/12 12:54:48;;;;;;;37.78;22.17;;;;;;;;;;4986441;28;21593;-80
2022/12/12 12:57:14;;;;;;;39.20;21.33;;;;;;;;;;5000967;28;20459;-80
2022/12/12 12:59:43;;;;;;;42.00;20.52;;;;;;;;;;4989151;28;20038;-82
2022/12/12 13:02:26;;;;;;;49.80;23.10;;;;;;;;;;4998941;28;20060;-83
2022/12/12 13:04:55;;;;;;;48.60;24.55;;;;;;;;;;4983903;28;20035;-82
2022/12/12 13:07:28;;;;;;;46.22;22.05;;;;;;;;;;4964038;28;20038;-79
2022/12/12 13:09:56;;;;;;;45.42;24.42;;;;;;;;;;4974195;28;20476;-81
2022/12/12 13:12:23;;;;;;;48.50;23.15;;;;;;;;;;4982569;28;20044;-82
2022/12/12 13:14:52;;;;;;;42.17;23.27;;;;;;;;;;4988289;28;20038;-80
2022/12/12 13:17:22;;;;;;;47.67;23.52;;;;;;;;;;4986222;28;20030;-80
2022/12/12 13:19:52;;;;;;;42.17;22.60;;;;;;;;;;4987324;28;20366;-81
2022/12/12 13:22:21;;;;;;;45.15;22.65;;;;;;;;;;4990122;28;20105;-80
2022/12/12 13:24:53;;;;;;;41.53;22.63;;;;;;;;;;4975810;28;20531;-81
2022/12/12 13:27:25;;;;;;;42.97;22.50;;;;;;;;;;5001705;28;20523;-82
2022/12/12 13:30:01;;;;;;;45.83;23.00;;;;;;;;;;4989541;28;20545;-80
2022/12/12 13:32:46;;;;;;;48.25;23.20;;;;;;;;;;4987860;28;20026;-81
2022/12/12 13:35:14;;;;;;;39.63;21.33;;;;;;;;;;4989824;28;20118;-81
2022/12/12 13:37:48;;;;;;;40.58;22.42;;;;;;;;;;4983995;28;20038;-81
2022/12/12 13:40:26;;;;;;;45.05;22.92;;;;;;;;;;4989459;28;20117;-81
2022/12/12 13:42:54;;;;;;;47.20;24.10;;;;;;;;;;5004527;28;20031;-81
2022/12/12 13:45:33;;;;;;;43.90;21.70;;;;;;;;;;4988434;28;20065;-81
2022/12/12 13:48:02;;;;;;;41.60;22.00;;;;;;;;;;4961711;28;20121;-81
2022/12/12 13:50:28;;;;;;;39.10;21.48;;;;;;;;;;4983426;28;20491;-81
2022/12/12 13:53:07;;;;;;;43.00;21.08;;;;;;;;;;4987160;28;20084;-81
2022/12/12 13:55:39;;;;;;;43.50;22.15;;;;;;;;;;4988996;28;20027;-81
2022/12/12 13:58:16;;;;;;;38.83;21.60;;;;;;;;;;4998167;28;20030;-81
2022/12/12 14:00:42;;;;;;;37.85;21.67;;;;;;;;;;4995865;28;20460;-81
2022/12/12 14:03:11;;;;;;;43.17;21.38;;;;;;;;;;4982207;28;20076;-87
2022/12/12 14:05:40;;;;;;;39.70;20.52;;;;;;;;;;4986116;28;20499;-82
2022/12/12 14:08:10;;;;;;;35.45;20.27;;;;;;;;;;4985658;28;20157;-83
2022/12/12 14:10:39;;;;;;;41.90;22.95;;;;;;;;;;4983188;28;20038;-81
2022/12/12 14:13:25;;;;;;;42.10;22.17;;;;;;;;;;4969927;28;20019;-81
2022/12/12 14:15:58;;;;;;;39.83;21.33;;;;;;;;;;4968924;28;20030;-82
2022/12/12 14:18:25;;;;;;;43.28;21.33;;;;;;;;;;4993407;28;20507;-82
2022/12/12 14:21:01;;;;;;;45.42;24.83;;;;;;;;;;4998982;28;20038;-81
2022/12/12 14:23:32;;;;;;;46.63;24.30;;;;;;;;;;4984329;28;20399;-81
2022/12/12 14:25:59;;;;;;;47.85;24.88;;;;;;;;;;4961102;28;20454;-79
2022/12/12 14:28:29;;;;;;;42.88;22.48;;;;;;;;;;4982163;28;20045;-80
2022/12/12 14:30:58;;;;;;;47.97;21.85;;;;;;;;;;4980442;28;20153;-80
2022/12/12 14:33:44;;;;;;;39.78;22.42;;;;;;;;;;4987911;28;20030;-80
2022/12/12 14:36:16;;;;;;;41.15;22.83;;;;;;;;;;4987259;28;20038;-80
2022/12/12 14:38:47;;;;;;;43.03;24.17;;;;;;;;;;4988618;28;20057;-80
2022/12/12 14:41:15;;;;;;;37.60;21.98;;;;;;;;;;4975825;28;20404;-79
2022/12/12 14:43:44;;;;;;;43.88;22.25;;;;;;;;;;4987051;28;20530;-79
2022/12/12 14:46:14;;;;;;;39.15;21.88;;;;;;;;;;4984952;28;20033;-79
2022/12/12 14:48:41;;;;;;;37.60;20.23;;;;;;;;;;4985534;28;20054;-80